Time;durP1;ratioP1;P1;durP2;ratioP2;P2;SDS_P1;SDS_P2;PMS_P1;PMS_P2;Temp;Humidity;BMP_temperature;BMP_pressure;BME280_temperature;BME280_humidity;BME280_pressure;Samples;Min_cycle;Max_cycle;Signal;HPM_P1;HPM_P2
2023/08/30 00:00:01;;;;;;;6.43;4.63;;;16.80;99.90;;;;;;5063399;28;20246;-23
2023/08/30 00:02:28;;;;;;;5.80;4.37;;;16.80;99.90;;;;;;5057983;28;20199;-23
2023/08/30 00:05:02;;;;;;;5.23;4.20;;;16.80;99.90;;;;;;5065119;28;20211;-24
2023/08/30 00:07:31;;;;;;;5.43;4.18;;;16.80;99.90;;;;;;5052604;28;20251;-23
2023/08/30 00:09:59;;;;;;;5.90;4.93;;;16.80;99.90;;;;;;5059393;28;20286;-23
2023/08/30 00:12:27;;;;;;;5.40;4.28;;;16.80;99.90;;;;;;5066819;28;20200;-23
2023/08/30 00:14:54;;;;;;;6.17;4.60;;;16.80;99.90;;;;;;5047923;28;20316;-23
2023/08/30 00:17:23;;;;;;;6.85;4.90;;;16.80;99.90;;;;;;5049146;28;20208;-23
2023/08/30 00:19:55;;;;;;;5.43;4.30;;;16.80;99.90;;;;;;5031417;28;20215;-23
2023/08/30 00:22:23;;;;;;;4.70;4.20;;;16.80;99.90;;;;;;5054804;28;20758;-23
2023/08/30 00:24:51;;;;;;;6.30;4.97;;;16.80;99.90;;;;;;5048899;28;20220;-23
2023/08/30 00:27:20;;;;;;;6.63;4.83;;;16.80;99.90;;;;;;5043574;28;20628;-23
2023/08/30 00:29:47;;;;;;;5.70;4.57;;;16.70;99.90;;;;;;5061839;28;20223;-23
2023/08/30 00:32:21;;;;;;;7.82;4.80;;;16.70;99.90;;;;;;5064785;28;20697;-23
2023/08/30 00:34:51;;;;;;;7.40;4.93;;;16.80;99.90;;;;;;5060719;28;21010;-23
2023/08/30 00:37:21;;;;;;;5.60;4.72;;;16.70;99.90;;;;;;5050643;28;20191;-23
2023/08/30 00:39:50;;;;;;;7.30;4.60;;;16.70;99.90;;;;;;5068396;28;20255;-23
2023/08/30 00:42:20;;;;;;;6.50;4.77;;;16.70;99.90;;;;;;5064017;28;20646;-24
2023/08/30 00:44:47;;;;;;;5.63;4.70;;;16.70;99.90;;;;;;5064444;28;20479;-23
2023/08/30 00:47:15;;;;;;;6.87;4.70;;;16.70;99.90;;;;;;5047601;28;20749;-24
2023/08/30 00:49:42;;;;;;;6.73;4.70;;;16.70;99.90;;;;;;5051798;28;20269;-23
2023/08/30 00:52:11;;;;;;;6.20;4.50;;;16.70;99.90;;;;;;5067071;28;20265;-23
2023/08/30 00:54:41;;;;;;;5.53;4.43;;;16.70;99.90;;;;;;5068913;28;20297;-24
2023/08/30 00:57:09;;;;;;;6.60;4.85;;;16.80;99.90;;;;;;5061311;28;20673;-23
2023/08/30 00:59:38;;;;;;;6.30;4.53;;;16.80;99.90;;;;;;5063113;28;20269;-23
2023/08/30 01:02:12;;;;;;;5.43;4.50;;;16.80;99.90;;;;;;5053877;28;20208;-23
2023/08/30 01:04:41;;;;;;;6.33;4.60;;;16.80;99.90;;;;;;5062300;28;20238;-24
2023/08/30 01:07:11;;;;;;;6.53;4.70;;;16.80;99.90;;;;;;5056499;28;20196;-23
2023/08/30 01:09:40;;;;;;;6.93;4.80;;;16.80;99.90;;;;;;5065400;28;20235;-23
2023/08/30 01:12:18;;;;;;;6.78;5.10;;;16.80;99.90;;;;;;5063295;28;20208;-23
2023/08/30 01:14:56;;;;;;;5.38;4.65;;;16.80;99.90;;;;;;5063261;28;20207;-23
2023/08/30 01:17:27;;;;;;;5.97;5.07;;;16.80;99.90;;;;;;5068025;28;20245;-23
2023/08/30 01:20:15;;;;;;;7.27;5.10;;;16.80;99.90;;;;;;5062274;28;20204;-23
2023/08/30 01:22:47;;;;;;;7.10;4.88;;;16.80;99.90;;;;;;5067145;28;20265;-23
2023/08/30 01:25:15;;;;;;;6.85;5.53;;;16.80;99.90;;;;;;5063832;28;20239;-23
2023/08/30 01:27:47;;;;;;;5.40;4.90;;;16.80;99.90;;;;;;5070929;28;20199;-23
2023/08/30 01:30:15;;;;;;;7.50;5.15;;;16.80;99.90;;;;;;5067624;28;20320;-23
2023/08/30 01:32:46;;;;;;;6.00;4.85;;;16.70;99.90;;;;;;5066324;28;20218;-31
2023/08/30 01:35:19;;;;;;;6.50;5.28;;;16.70;99.90;;;;;;5062101;28;20299;-31
2023/08/30 01:37:51;;;;;;;6.40;5.17;;;16.70;99.90;;;;;;5046134;28;20287;-31
2023/08/30 01:40:19;;;;;;;7.57;5.30;;;16.60;99.90;;;;;;5045883;28;20321;-31
2023/08/30 01:42:50;;;;;;;8.70;5.22;;;16.60;99.90;;;;;;5063077;28;20235;-31
2023/08/30 01:45:18;;;;;;;6.53;5.27;;;16.60;99.90;;;;;;5045927;28;20682;-31
2023/08/30 01:47:52;;;;;;;5.77;4.77;;;16.50;99.90;;;;;;5067576;28;20306;-31
2023/08/30 01:50:27;;;;;;;5.37;4.70;;;16.50;99.90;;;;;;5059185;28;20674;-31
2023/08/30 01:52:57;;;;;;;5.63;5.03;;;16.50;99.90;;;;;;5047369;28;20250;-31
2023/08/30 01:55:26;;;;;;;5.30;4.73;;;16.50;99.90;;;;;;5049400;28;20578;-31
2023/08/30 01:57:55;;;;;;;5.38;4.47;;;16.40;99.90;;;;;;5057751;28;22029;-31
2023/08/30 02:00:25;;;;;;;6.32;4.78;;;16.40;99.90;;;;;;5067688;28;20691;-31
2023/08/30 02:02:56;;;;;;;5.55;5.05;;;16.40;99.90;;;;;;5065883;28;20629;-30
2023/08/30 02:05:25;;;;;;;5.67;4.90;;;16.40;99.90;;;;;;5045967;28;20710;-31
2023/08/30 02:08:14;;;;;;;5.53;4.67;;;16.40;99.90;;;;;;5048684;28;20243;-31
2023/08/30 02:10:56;;;;;;;7.63;5.53;;;16.40;99.90;;;;;;5067771;28;20315;-31
2023/08/30 02:13:30;;;;;;;6.53;5.07;;;16.40;99.90;;;;;;5065782;28;20188;-31
2023/08/30 02:16:02;;;;;;;7.87;5.10;;;16.40;99.90;;;;;;5066416;28;20490;-31
2023/08/30 02:18:29;;;;;;;6.17;5.23;;;16.40;99.90;;;;;;5059237;28;20551;-31
2023/08/30 02:21:04;;;;;;;6.18;5.57;;;16.40;99.90;;;;;;5064784;28;20635;-31
2023/08/30 02:23:36;;;;;;;6.70;5.13;;;16.40;99.90;;;;;;5066201;28;20630;-31
2023/08/30 02:26:05;;;;;;;6.03;5.43;;;16.50;99.90;;;;;;5066670;28;20273;-31
2023/08/30 02:28:33;;;;;;;7.80;5.53;;;16.50;99.90;;;;;;5066527;28;20215;-31
2023/08/30 02:31:04;;;;;;;7.37;5.47;;;16.50;99.90;;;;;;5028389;28;20228;-31
2023/08/30 02:33:34;;;;;;;8.40;5.83;;;16.50;99.90;;;;;;5058409;28;20203;-31
2023/08/30 02:36:01;;;;;;;6.77;5.80;;;16.50;99.90;;;;;;5056462;28;20880;-31
2023/08/30 02:38:30;;;;;;;7.03;4.87;;;16.50;99.90;;;;;;5048739;28;20240;-31
2023/08/30 02:41:00;;;;;;;7.37;5.40;;;16.50;99.90;;;;;;5064786;28;20636;-31
2023/08/30 02:43:28;;;;;;;7.97;6.32;;;16.60;99.90;;;;;;5045618;28;20290;-31
2023/08/30 02:46:01;;;;;;;7.97;5.67;;;16.60;99.90;;;;;;5053085;28;20218;-30
2023/08/30 02:48:28;;;;;;;8.07;5.73;;;16.60;99.90;;;;;;5048721;28;20207;-31
2023/08/30 02:50:58;;;;;;;7.70;5.70;;;16.60;99.90;;;;;;5063084;28;20694;-31
2023/08/30 02:53:27;;;;;;;7.50;5.00;;;16.60;99.90;;;;;;5067104;28;20211;-31
2023/08/30 02:55:55;;;;;;;6.27;5.50;;;16.60;99.90;;;;;;5052338;28;20250;-31
2023/08/30 02:58:25;;;;;;;6.40;5.70;;;16.60;99.90;;;;;;5053818;28;20203;-32
2023/08/30 03:00:54;;;;;;;5.70;5.10;;;16.60;99.90;;;;;;5066316;28;20207;-31
2023/08/30 03:03:21;;;;;;;5.93;5.33;;;16.60;99.90;;;;;;5056571;28;20326;-31
2023/08/30 03:05:51;;;;;;;7.00;5.88;;;16.70;99.90;;;;;;5047284;28;20208;-31
2023/08/30 03:08:18;;;;;;;6.97;5.30;;;16.70;99.90;;;;;;5067391;28;20209;-30
2023/08/30 03:10:49;;;;;;;8.32;5.57;;;16.70;99.90;;;;;;5030709;28;20655;-31
2023/08/30 03:13:21;;;;;;;7.72;4.82;;;16.70;99.90;;;;;;5060330;28;20651;-31
2023/08/30 03:15:50;;;;;;;5.90;5.38;;;16.70;99.90;;;;;;5059245;28;20200;-31
2023/08/30 03:18:20;;;;;;;6.55;5.55;;;16.70;99.90;;;;;;5044802;28;20204;-31
2023/08/30 03:20:49;;;;;;;6.57;5.50;;;16.80;99.90;;;;;;5059741;28;20222;-31
2023/08/30 03:23:16;;;;;;;6.60;5.90;;;16.80;99.90;;;;;;5048172;28;20230;-31
2023/08/30 03:25:44;;;;;;;7.33;5.87;;;16.80;99.90;;;;;;5061580;28;20699;-31
2023/08/30 03:28:11;;;;;;;7.00;5.87;;;16.80;99.90;;;;;;5027402;28;20206;-31
2023/08/30 03:30:38;;;;;;;7.17;6.10;;;16.80;99.90;;;;;;5050900;28;20716;-31
2023/08/30 03:33:07;;;;;;;8.17;6.30;;;16.80;99.90;;;;;;5059832;28;20199;-31
2023/08/30 03:35:37;;;;;;;7.37;6.10;;;16.80;99.90;;;;;;5048637;28;20684;-31
2023/08/30 03:38:04;;;;;;;8.47;7.07;;;16.80;99.90;;;;;;5064509;28;20205;-30
2023/08/30 03:40:31;;;;;;;7.33;6.23;;;16.80;99.90;;;;;;5065241;28;20687;-31
2023/08/30 03:43:01;;;;;;;8.43;6.27;;;16.80;99.90;;;;;;5043966;28;20307;-31
2023/08/30 03:45:28;;;;;;;8.97;7.10;;;16.80;99.90;;;;;;5043861;28;20204;-31
2023/08/30 03:47:57;;;;;;;9.07;6.73;;;16.90;99.90;;;;;;5051322;28;20219;-32
2023/08/30 03:50:24;;;;;;;9.93;6.60;;;16.90;99.90;;;;;;5064400;28;20225;-31
2023/08/30 03:52:56;;;;;;;9.30;6.93;;;16.80;99.90;;;;;;5065489;28;20290;-30
2023/08/30 03:55:28;;;;;;;9.02;7.05;;;16.90;99.90;;;;;;5066190;28;20195;-31
2023/08/30 03:57:55;;;;;;;12.03;7.07;;;16.90;99.90;;;;;;5045132;28;20240;-31
2023/08/30 04:00:22;;;;;;;9.20;6.87;;;16.90;99.90;;;;;;5046846;28;20204;-31
2023/08/30 04:02:51;;;;;;;10.30;7.38;;;16.90;99.90;;;;;;5054317;28;20198;-31
2023/08/30 04:05:19;;;;;;;9.93;6.60;;;16.90;99.90;;;;;;5061376;28;20486;-31
2023/08/30 04:07:48;;;;;;;9.10;6.63;;;16.90;99.90;;;;;;5062645;28;20196;-31
2023/08/30 04:10:20;;;;;;;10.00;6.70;;;16.90;99.90;;;;;;5061852;28;20226;-31
2023/08/30 04:12:50;;;;;;;13.77;7.13;;;16.90;99.90;;;;;;5057728;28;20769;-31
2023/08/30 04:15:17;;;;;;;9.17;6.77;;;16.90;99.90;;;;;;5056628;28;20231;-31
2023/08/30 04:17:44;;;;;;;7.97;6.60;;;17.00;99.90;;;;;;5064055;28;20195;-31
2023/08/30 04:20:11;;;;;;;8.67;6.70;;;16.90;99.90;;;;;;5053673;28;20250;-31
2023/08/30 04:22:39;;;;;;;8.53;7.27;;;17.00;99.90;;;;;;5038551;28;20207;-31
2023/08/30 04:25:09;;;;;;;10.30;7.17;;;17.00;99.90;;;;;;5056680;28;20210;-31
2023/08/30 04:27:36;;;;;;;7.93;6.63;;;17.00;99.90;;;;;;5054899;28;20234;-31
2023/08/30 04:30:04;;;;;;;10.20;7.43;;;17.00;99.90;;;;;;5044692;28;20232;-31
2023/08/30 04:32:36;;;;;;;7.70;6.80;;;17.00;99.90;;;;;;5045576;28;20353;-31
2023/08/30 04:35:03;;;;;;;9.07;6.40;;;17.00;99.90;;;;;;5049744;28;20888;-31
2023/08/30 04:37:35;;;;;;;8.77;6.80;;;17.00;99.90;;;;;;5066611;28;20201;-31
2023/08/30 04:40:03;;;;;;;7.87;6.30;;;17.00;99.90;;;;;;5063537;28;20342;-31
2023/08/30 04:42:30;;;;;;;8.53;6.53;;;17.00;99.90;;;;;;5065357;28;20218;-31
2023/08/30 04:45:00;;;;;;;7.68;6.05;;;17.00;99.90;;;;;;5064229;28;20298;-31
2023/08/30 04:47:31;;;;;;;8.57;6.03;;;17.00;99.90;;;;;;5053997;28;20204;-31
2023/08/30 04:50:05;;;;;;;7.67;5.70;;;17.00;99.90;;;;;;5043962;28;20212;-31
2023/08/30 04:52:37;;;;;;;9.50;6.40;;;17.00;99.90;;;;;;5052044;28;20198;-31
2023/08/30 04:55:05;;;;;;;8.40;5.90;;;17.00;99.90;;;;;;5064713;28;20666;-31
2023/08/30 04:57:34;;;;;;;7.78;5.88;;;17.10;99.90;;;;;;5061816;28;20211;-31
2023/08/30 05:00:05;;;;;;;6.77;5.27;;;17.10;99.90;;;;;;5055336;28;20218;-31
2023/08/30 05:02:34;;;;;;;6.97;5.63;;;17.10;99.90;;;;;;5066407;28;20613;-30
2023/08/30 05:05:01;;;;;;;6.37;5.23;;;17.10;99.90;;;;;;5061467;28;20195;-31
2023/08/30 05:07:31;;;;;;;7.60;5.30;;;17.10;99.90;;;;;;5070041;28;20211;-31
2023/08/30 05:10:01;;;;;;;9.30;6.03;;;17.10;99.90;;;;;;5066689;28;20570;-31
2023/08/30 05:12:30;;;;;;;6.95;5.20;;;17.10;99.90;;;;;;5053141;28;20784;-31
2023/08/30 05:15:03;;;;;;;7.60;5.17;;;17.10;99.90;;;;;;5050762;28;20207;-31
2023/08/30 05:17:31;;;;;;;6.77;4.90;;;17.10;99.90;;;;;;5061713;28;20214;-31
2023/08/30 05:20:05;;;;;;;5.43;3.97;;;17.10;99.90;;;;;;5056720;28;20208;-31
2023/08/30 05:22:35;;;;;;;5.67;4.40;;;17.20;99.90;;;;;;5066152;28;20704;-31
2023/08/30 05:25:07;;;;;;;7.40;4.27;;;17.20;99.90;;;;;;5067959;28;20214;-32
2023/08/30 05:27:36;;;;;;;7.77;4.20;;;17.20;99.90;;;;;;5065135;28;20204;-31
2023/08/30 05:30:06;;;;;;;6.47;4.10;;;17.20;99.90;;;;;;5069026;28;20242;-31
2023/08/30 05:32:35;;;;;;;5.88;4.40;;;17.20;99.90;;;;;;5066082;28;20575;-31
2023/08/30 05:35:08;;;;;;;10.18;4.10;;;17.20;99.90;;;;;;5061656;28;20311;-31
2023/08/30 05:37:40;;;;;;;5.50;3.70;;;17.20;99.90;;;;;;5051761;28;20667;-31
2023/08/30 05:40:08;;;;;;;5.73;3.50;;;17.20;99.90;;;;;;5053932;28;20558;-31
2023/08/30 05:42:37;;;;;;;4.73;3.60;;;17.30;99.90;;;;;;5046726;28;20214;-31
2023/08/30 05:45:07;;;;;;;5.43;3.50;;;17.30;99.90;;;;;;5053917;28;20210;-32
2023/08/30 05:47:37;;;;;;;5.43;3.43;;;17.30;99.90;;;;;;5041915;28;20204;-31
2023/08/30 05:50:05;;;;;;;4.00;3.27;;;17.30;99.90;;;;;;5055630;28;20670;-31
2023/08/30 05:52:35;;;;;;;5.17;3.30;;;17.30;99.90;;;;;;5047380;28;20311;-31
2023/08/30 05:55:02;;;;;;;9.98;3.50;;;17.30;99.90;;;;;;5066226;28;20586;-31
2023/08/30 05:57:33;;;;;;;7.55;3.47;;;17.40;99.90;;;;;;5065605;28;20195;-31
2023/08/30 06:00:01;;;;;;;5.63;3.40;;;17.40;99.90;;;;;;5049652;28;20216;-31
2023/08/30 06:02:30;;;;;;;4.68;3.22;;;17.40;99.90;;;;;;5048686;28;20691;-31
2023/08/30 06:05:02;;;;;;;6.97;3.35;;;17.40;99.90;;;;;;5047681;28;20208;-31
2023/08/30 06:07:34;;;;;;;4.77;3.60;;;17.40;99.90;;;;;;5048163;28;20216;-31
2023/08/30 06:10:02;;;;;;;3.47;2.80;;;17.40;99.90;;;;;;5064509;28;20576;-31
2023/08/30 06:12:30;;;;;;;5.10;2.78;;;17.40;99.90;;;;;;5065942;28;20746;-31
2023/08/30 06:14:57;;;;;;;7.73;3.53;;;17.40;99.90;;;;;;5058281;28;20223;-30
2023/08/30 06:17:24;;;;;;;11.68;3.60;;;17.50;99.90;;;;;;5056180;28;20200;-31
2023/08/30 06:19:51;;;;;;;5.60;2.88;;;17.50;99.90;;;;;;5055284;28;20812;-31
2023/08/30 06:22:19;;;;;;;2.83;2.53;;;17.50;99.90;;;;;;5057489;28;20311;-24
2023/08/30 06:24:48;;;;;;;5.30;3.30;;;17.50;99.90;;;;;;5049896;28;20285;-23
2023/08/30 06:27:17;;;;;;;4.70;2.88;;;17.50;99.90;;;;;;5053818;28;20204;-23
2023/08/30 06:29:47;;;;;;;3.83;2.72;;;17.50;99.90;;;;;;5030606;28;20207;-23
2023/08/30 06:32:14;;;;;;;5.60;3.10;;;17.50;99.90;;;;;;5059370;28;20231;-23
2023/08/30 06:34:41;;;;;;;3.87;2.60;;;17.50;99.90;;;;;;5064447;28;20215;-23
2023/08/30 06:37:17;;;;;;;2.70;2.33;;;17.50;99.90;;;;;;5064562;28;20270;-23
2023/08/30 06:39:46;;;;;;;3.33;2.60;;;17.50;99.90;;;;;;5058935;28;20257;-23
2023/08/30 06:42:16;;;;;;;5.03;2.40;;;17.50;99.90;;;;;;5064031;28;20211;-23
2023/08/30 06:44:45;;;;;;;3.27;2.33;;;17.50;99.90;;;;;;5061924;28;20212;-23
2023/08/30 06:47:12;;;;;;;5.70;2.65;;;17.60;99.90;;;;;;5063163;28;20197;-23
2023/08/30 06:49:40;;;;;;;3.30;2.67;;;17.60;99.90;;;;;;5056922;28;20325;-23
2023/08/30 06:52:09;;;;;;;6.20;2.92;;;17.60;99.90;;;;;;5055196;28;20314;-23
2023/08/30 06:54:38;;;;;;;2.90;2.40;;;17.60;99.90;;;;;;5054700;28;20527;-23
2023/08/30 06:57:08;;;;;;;2.90;2.20;;;17.60;99.90;;;;;;5045999;28;20499;-23
2023/08/30 06:59:38;;;;;;;4.05;2.05;;;17.60;99.90;;;;;;5045404;28;20239;-23
2023/08/30 07:02:08;;;;;;;2.50;2.05;;;17.60;99.90;;;;;;5056302;28;20322;-23
2023/08/30 07:04:35;;;;;;;4.10;2.60;;;17.70;99.90;;;;;;5052358;28;21098;-23
2023/08/30 07:07:05;;;;;;;3.63;2.90;;;17.70;99.90;;;;;;5055662;28;20207;-23
2023/08/30 07:09:33;;;;;;;3.13;2.60;;;17.70;99.90;;;;;;5068195;28;20248;-23
2023/08/30 07:12:00;;;;;;;4.57;3.08;;;17.70;99.90;;;;;;5060506;28;20252;-23
2023/08/30 07:14:30;;;;;;;4.60;2.47;;;17.70;99.90;;;;;;5065412;28;20719;-23
2023/08/30 07:16:57;;;;;;;2.83;2.43;;;17.80;99.90;;;;;;5067242;28;20298;-23
2023/08/30 07:19:25;;;;;;;6.43;2.60;;;17.80;99.90;;;;;;5062695;28;20195;-23
2023/08/30 07:21:56;;;;;;;3.90;2.50;;;17.80;99.90;;;;;;5060503;28;20218;-23
2023/08/30 07:24:26;;;;;;;4.88;2.67;;;17.80;99.90;;;;;;5048368;28;20305;-23
2023/08/30 07:26:55;;;;;;;5.57;3.13;;;17.80;99.90;;;;;;5052160;28;20208;-23
2023/08/30 07:29:25;;;;;;;3.00;2.70;;;17.80;99.90;;;;;;5060669;28;20200;-23
2023/08/30 07:31:59;;;;;;;4.85;2.80;;;17.90;99.90;;;;;;5033708;28;20212;-23
2023/08/30 07:34:26;;;;;;;3.73;2.73;;;17.90;99.90;;;;;;5056951;28;20220;-23
2023/08/30 07:36:55;;;;;;;4.93;3.55;;;17.90;99.90;;;;;;5062482;28;20191;-23
2023/08/30 07:39:23;;;;;;;3.78;2.97;;;17.90;99.90;;;;;;5052852;28;20682;-23
2023/08/30 07:41:51;;;;;;;5.83;2.90;;;17.90;99.90;;;;;;5046274;28;20743;-23
2023/08/30 07:44:20;;;;;;;5.70;2.78;;;17.90;99.90;;;;;;5063107;28;20211;-23
2023/08/30 07:46:49;;;;;;;3.50;2.85;;;17.90;99.90;;;;;;5066744;28;20214;-23
2023/08/30 07:49:18;;;;;;;4.53;3.30;;;18.00;99.90;;;;;;5051078;28;20211;-23
2023/08/30 07:51:46;;;;;;;3.47;3.10;;;18.00;99.90;;;;;;5044978;28;20235;-23
2023/08/30 07:54:13;;;;;;;3.97;2.80;;;18.00;99.90;;;;;;5050563;28;20200;-23
2023/08/30 07:56:40;;;;;;;3.72;2.95;;;18.00;99.90;;;;;;5045309;28;20200;-23
2023/08/30 07:59:08;;;;;;;5.70;3.17;;;18.00;99.90;;;;;;5053497;28;20259;-23
2023/08/30 08:01:35;;;;;;;4.17;3.40;;;18.00;99.90;;;;;;5066470;28;20302;-23
2023/08/30 08:04:05;;;;;;;3.60;2.95;;;18.00;99.90;;;;;;5053483;28;20208;-23
2023/08/30 08:06:38;;;;;;;3.53;2.87;;;18.00;99.90;;;;;;5058569;28;20196;-23
2023/08/30 08:09:07;;;;;;;5.07;2.90;;;18.00;99.90;;;;;;5065233;28;20208;-23
2023/08/30 08:11:37;;;;;;;3.80;2.93;;;18.00;99.90;;;;;;5063854;28;20302;-23
2023/08/30 08:14:04;;;;;;;3.20;2.53;;;18.00;99.90;;;;;;5055974;28;20672;-23
2023/08/30 08:16:31;;;;;;;3.50;2.70;;;18.00;99.90;;;;;;5058930;28;20636;-23
2023/08/30 08:19:01;;;;;;;3.35;2.72;;;18.00;99.90;;;;;;5062875;28;20219;-29
2023/08/30 08:21:32;;;;;;;3.20;2.90;;;18.00;99.90;;;;;;5060893;28;20726;-29
2023/08/30 08:23:59;;;;;;;3.60;2.75;;;18.00;99.90;;;;;;5056452;28;20281;-29
2023/08/30 08:26:27;;;;;;;4.07;2.87;;;18.10;99.90;;;;;;5061730;28;20212;-29
2023/08/30 08:28:57;;;;;;;4.87;3.17;;;18.10;99.90;;;;;;5051744;28;20550;-29
2023/08/30 08:31:24;;;;;;;3.50;2.90;;;18.10;99.90;;;;;;5054289;28;20216;-29
2023/08/30 08:34:10;;;;;;;3.57;2.53;;;18.10;99.90;;;;;;5040706;28;20200;-29
2023/08/30 08:36:42;;;;;;;3.70;2.55;;;18.10;99.90;;;;;;5062731;28;20222;-29
2023/08/30 08:39:14;;;;;;;3.45;2.38;;;18.10;99.90;;;;;;5066499;28;20258;-29
2023/08/30 08:41:46;;;;;;;3.15;2.33;;;18.10;99.90;;;;;;5051752;28;20640;-29
2023/08/30 08:44:16;;;;;;;2.83;2.20;;;18.10;99.90;;;;;;5057592;28;20314;-29
2023/08/30 08:46:47;;;;;;;3.15;2.40;;;18.20;99.90;;;;;;5057926;28;20293;-29
2023/08/30 08:49:16;;;;;;;3.50;2.30;;;18.20;99.90;;;;;;5064922;28;20207;-29
2023/08/30 08:51:46;;;;;;;5.00;2.33;;;18.20;99.90;;;;;;5048375;28;20718;-29
2023/08/30 08:54:13;;;;;;;3.70;2.50;;;18.20;99.90;;;;;;5065042;28;20290;-29
2023/08/30 08:56:44;;;;;;;6.68;3.30;;;18.30;99.90;;;;;;5065263;28;20646;-29
2023/08/30 08:59:11;;;;;;;7.25;3.40;;;18.30;99.90;;;;;;5066708;28;20207;-29
2023/08/30 09:01:43;;;;;;;9.60;2.70;;;18.30;99.90;;;;;;5055052;28;20689;-23
2023/08/30 09:04:11;;;;;;;6.15;3.30;;;18.30;99.90;;;;;;5060969;28;20204;-23
2023/08/30 09:06:43;;;;;;;6.85;3.22;;;18.40;99.90;;;;;;5058332;28;20627;-23
2023/08/30 09:09:13;;;;;;;6.88;2.63;;;18.50;99.90;;;;;;5059425;28;20658;-23
2023/08/30 09:11:46;;;;;;;5.45;2.80;;;18.50;99.90;;;;;;5060491;28;20227;-23
2023/08/30 09:14:20;;;;;;;3.70;2.58;;;18.50;99.90;;;;;;5054480;28;20642;-29
2023/08/30 09:17:07;;;;;;;3.42;2.38;;;18.50;99.90;;;;;;5049474;28;20283;-29
2023/08/30 09:19:35;;;;;;;6.35;2.47;;;18.60;99.90;;;;;;5066359;28;20203;-29
2023/08/30 09:22:04;;;;;;;2.92;2.20;;;18.60;99.90;;;;;;5068447;28;20576;-29
2023/08/30 09:24:39;;;;;;;3.47;2.03;;;18.60;99.90;;;;;;5063544;28;20199;-29
2023/08/30 09:27:08;;;;;;;7.60;2.60;;;18.60;99.90;;;;;;5068005;28;20213;-29
2023/08/30 09:29:38;;;;;;;4.03;2.13;;;18.60;99.90;;;;;;5062170;28;20208;-31
2023/08/30 09:32:08;;;;;;;4.20;2.20;;;18.70;99.90;;;;;;5047658;28;20220;-23
2023/08/30 09:34:36;;;;;;;9.67;2.77;;;18.70;99.90;;;;;;5063515;28;20258;-23
2023/08/30 09:37:07;;;;;;;6.95;2.65;;;18.70;99.90;;;;;;5049516;28;20291;-23
2023/08/30 09:39:37;;;;;;;8.10;2.38;;;18.80;99.90;;;;;;5039014;28;20370;-23
2023/08/30 09:42:07;;;;;;;9.60;3.33;;;18.90;99.90;;;;;;5065477;28;20221;-23
2023/08/30 09:44:35;;;;;;;8.23;3.35;;;18.90;99.90;;;;;;5050345;28;20210;-23
2023/08/30 09:47:03;;;;;;;6.07;2.60;;;19.00;99.90;;;;;;5062316;28;20211;-23
2023/08/30 09:49:45;;;;;;;3.80;2.72;;;19.10;99.90;;;;;;5049095;28;20228;-23
2023/08/30 09:52:15;;;;;;;4.03;2.90;;;19.20;99.90;;;;;;5055909;28;20223;-23
2023/08/30 09:54:47;;;;;;;3.70;2.40;;;19.20;99.90;;;;;;5067699;28;20203;-23
2023/08/30 09:57:18;;;;;;;4.10;2.80;;;19.20;99.90;;;;;;5063572;28;20224;-23
2023/08/30 09:59:46;;;;;;;3.37;2.93;;;19.20;99.90;;;;;;5059250;28;20314;-23
2023/08/30 10:02:13;;;;;;;2.88;2.55;;;19.30;99.90;;;;;;5062774;28;20294;-23
2023/08/30 10:04:43;;;;;;;3.40;2.67;;;19.40;99.90;;;;;;5043187;28;20234;-23
2023/08/30 10:07:20;;;;;;;3.33;2.70;;;19.40;99.90;;;;;;5062296;28;20219;-23
2023/08/30 10:09:52;;;;;;;3.33;3.03;;;19.40;99.90;;;;;;5056311;28;20211;-23
2023/08/30 10:12:36;;;;;;;4.10;3.33;;;19.40;99.90;;;;;;5055138;28;20219;-23
2023/08/30 10:15:05;;;;;;;3.45;3.15;;;19.40;99.90;;;;;;5058306;28;20207;-23
2023/08/30 10:17:35;;;;;;;4.40;3.30;;;19.50;99.90;;;;;;5067212;28;20510;-29
2023/08/30 10:20:08;;;;;;;3.80;3.40;;;19.50;99.90;;;;;;5064304;28;20208;-29
2023/08/30 10:22:40;;;;;;;4.93;3.80;;;19.50;99.90;;;;;;5059433;28;20223;-29
2023/08/30 10:25:16;;;;;;;5.83;4.90;;;19.50;99.90;;;;;;5067650;28;20295;-29
2023/08/30 10:27:47;;;;;;;4.90;3.83;;;19.50;99.90;;;;;;5056515;28;20234;-29
2023/08/30 10:30:16;;;;;;;5.47;4.10;;;19.50;99.90;;;;;;5064768;28;20622;-29
2023/08/30 10:32:46;;;;;;;4.93;4.10;;;19.50;99.90;;;;;;5065198;28;20223;-29
2023/08/30 10:35:15;;;;;;;6.33;4.83;;;19.60;99.90;;;;;;5061110;28;20207;-29
2023/08/30 10:37:45;;;;;;;5.53;4.63;;;19.60;99.90;;;;;;5059788;28;20291;-29
2023/08/30 10:40:12;;;;;;;5.45;4.78;;;19.50;99.90;;;;;;5047463;28;20713;-29
2023/08/30 10:42:42;;;;;;;6.30;4.38;;;19.50;99.90;;;;;;5061780;28;20585;-29
2023/08/30 10:45:09;;;;;;;6.13;4.30;;;19.60;99.90;;;;;;5064444;28;20294;-30
2023/08/30 10:47:40;;;;;;;5.38;4.88;;;19.60;99.90;;;;;;5066609;28;20362;-29
2023/08/30 10:50:12;;;;;;;5.95;4.70;;;19.60;99.90;;;;;;5059818;28;20662;-23
2023/08/30 10:52:40;;;;;;;5.15;4.57;;;19.60;99.90;;;;;;5063644;28;20227;-23
2023/08/30 10:55:14;;;;;;;7.47;4.65;;;19.60;99.90;;;;;;5051353;28;20208;-23
2023/08/30 10:57:57;;;;;;;5.20;4.28;;;19.60;99.90;;;;;;5063858;28;20278;-23
2023/08/30 11:00:24;;;;;;;4.82;4.32;;;19.70;99.90;;;;;;5062434;28;20203;-23
2023/08/30 11:02:52;;;;;;;7.80;4.50;;;19.60;99.90;;;;;;5062232;28;20410;-23
2023/08/30 11:05:27;;;;;;;5.97;4.13;;;19.70;99.90;;;;;;5057339;28;20212;-23
2023/08/30 11:07:55;;;;;;;5.68;4.50;;;19.70;99.90;;;;;;5047478;28;20215;-23
2023/08/30 11:10:22;;;;;;;5.45;4.88;;;19.80;99.90;;;;;;5045842;28;20303;-22
2023/08/30 11:12:49;;;;;;;8.85;4.40;;;19.80;99.90;;;;;;5050865;28;20228;-22
2023/08/30 11:15:17;;;;;;;5.00;4.50;;;19.90;99.90;;;;;;5044564;28;20204;-23
2023/08/30 11:17:45;;;;;;;5.18;4.05;;;19.90;99.90;;;;;;5049410;28;20537;-23
2023/08/30 11:20:19;;;;;;;8.88;4.15;;;20.00;99.90;;;;;;5060675;28;20621;-23
2023/08/30 11:22:48;;;;;;;5.57;4.32;;;20.00;99.90;;;;;;5060559;28;20203;-23
2023/08/30 11:25:17;;;;;;;5.35;4.32;;;20.10;99.90;;;;;;5067016;28;20215;-23
2023/08/30 11:27:47;;;;;;;6.32;4.35;;;20.00;99.90;;;;;;5060149;28;20200;-23
2023/08/30 11:30:14;;;;;;;6.53;4.50;;;20.10;99.90;;;;;;5046858;28;20230;-23
2023/08/30 11:32:45;;;;;;;4.72;3.97;;;20.10;99.90;;;;;;5044699;28;20228;-23
2023/08/30 11:35:12;;;;;;;9.98;4.63;;;20.10;99.90;;;;;;5043255;28;20291;-23
2023/08/30 11:37:40;;;;;;;5.57;4.82;;;20.10;99.90;;;;;;5047269;28;20188;-23
2023/08/30 11:40:11;;;;;;;6.78;4.82;;;20.20;99.90;;;;;;5063308;28;20705;-23
2023/08/30 11:42:40;;;;;;;5.63;4.22;;;20.20;99.90;;;;;;5063068;28;20215;-23
2023/08/30 11:45:10;;;;;;;6.18;4.63;;;20.30;99.90;;;;;;5060981;28;20611;-23
2023/08/30 11:47:42;;;;;;;7.13;4.78;;;20.30;99.90;;;;;;5045308;28;20614;-23
2023/08/30 11:50:12;;;;;;;9.02;4.95;;;20.40;99.90;;;;;;5050529;28;20664;-23
2023/08/30 11:52:44;;;;;;;8.60;4.80;;;20.40;99.90;;;;;;5053574;28;20231;-23
2023/08/30 11:55:14;;;;;;;8.02;5.00;;;20.50;99.90;;;;;;5064099;28;20704;-23
2023/08/30 11:57:48;;;;;;;8.32;5.30;;;20.50;99.90;;;;;;5066845;28;20681;-23
2023/08/30 12:00:18;;;;;;;5.20;4.50;;;20.60;99.90;;;;;;5062943;28;20219;-23
2023/08/30 12:02:48;;;;;;;6.60;4.80;;;20.60;99.90;;;;;;5055007;28;20199;-23
2023/08/30 12:05:18;;;;;;;5.05;4.53;;;20.60;99.90;;;;;;5054855;28;20230;-23
2023/08/30 12:07:46;;;;;;;7.30;4.95;;;20.60;99.90;;;;;;5054506;28;20214;-23
2023/08/30 12:10:17;;;;;;;7.03;4.90;;;20.70;99.90;;;;;;5064917;28;20203;-23
2023/08/30 12:12:47;;;;;;;9.43;4.35;;;20.70;99.90;;;;;;5067141;28;20219;-31
2023/08/30 12:15:15;;;;;;;12.25;4.90;;;20.70;99.90;;;;;;5068161;28;20224;-30
2023/08/30 12:17:45;;;;;;;10.07;4.20;;;20.70;99.90;;;;;;5055037;28;20556;-30
2023/08/30 12:20:20;;;;;;;5.03;3.22;;;20.80;99.90;;;;;;5064191;28;20204;-30
2023/08/30 12:22:53;;;;;;;6.97;3.03;;;20.80;99.90;;;;;;5066238;28;20609;-30
2023/08/30 12:25:25;;;;;;;6.13;2.88;;;20.80;99.90;;;;;;5049205;28;20224;-30
2023/08/30 12:27:55;;;;;;;5.93;2.90;;;20.80;99.90;;;;;;5059610;28;20199;-30
2023/08/30 12:30:22;;;;;;;10.25;2.97;;;20.70;99.90;;;;;;5062932;28;20294;-30
2023/08/30 12:32:59;;;;;;;12.18;2.97;;;20.70;99.90;;;;;;5062023;28;20315;-30
2023/08/30 12:35:29;;;;;;;8.52;2.55;;;20.70;99.90;;;;;;5050803;28;20222;-30
2023/08/30 12:37:59;;;;;;;5.22;2.17;;;20.70;99.90;;;;;;5057788;28;20353;-30
2023/08/30 12:40:28;;;;;;;6.18;2.60;;;20.70;99.90;;;;;;5057642;28;20199;-30
2023/08/30 12:42:58;;;;;;;7.72;2.30;;;20.70;99.90;;;;;;5065494;28;20239;-31
2023/08/30 12:45:25;;;;;;;8.32;2.53;;;20.70;99.90;;;;;;5069881;28;20692;-30
2023/08/30 12:47:55;;;;;;;7.38;2.50;;;20.60;99.90;;;;;;5059651;28;20208;-30
2023/08/30 12:50:22;;;;;;;4.90;2.20;;;20.60;99.90;;;;;;5048199;28;20234;-30
2023/08/30 12:52:51;;;;;;;8.98;2.83;;;20.50;99.90;;;;;;5068531;28;20639;-30
2023/08/30 12:55:21;;;;;;;7.25;2.53;;;20.50;99.90;;;;;;5068228;28;20214;-30
2023/08/30 12:57:48;;;;;;;7.35;2.30;;;20.30;99.90;;;;;;5069333;28;20293;-30